createdAt,value
2019-02-27T00:01:20.824Z,54.00
2019-02-27T00:03:49.048Z,54.20
2019-02-27T00:06:17.236Z,55.07
2019-02-27T00:08:45.473Z,54.53
2019-02-27T00:11:13.664Z,53.23
2019-02-27T00:13:41.891Z,55.40
2019-02-27T00:16:11.124Z,55.57
2019-02-27T00:18:39.946Z,54.50
2019-02-27T00:21:11.010Z,56.93
2019-02-27T00:23:38.088Z,55.77
2019-02-27T00:26:08.777Z,54.20
2019-02-27T00:28:36.345Z,57.20
2019-02-27T00:31:04.565Z,53.37
2019-02-27T00:33:32.783Z,56.87
2019-02-27T00:36:01.006Z,55.93
2019-02-27T00:38:29.225Z,54.33
2019-02-27T00:40:57.441Z,55.90
2019-02-27T00:43:25.985Z,53.87
2019-02-27T00:45:55.559Z,55.43
2019-02-27T00:48:26.017Z,55.40
2019-02-27T00:50:53.701Z,52.77
2019-02-27T00:53:24.519Z,53.30
2019-02-27T00:55:52.380Z,54.27
2019-02-27T00:58:20.656Z,53.50
2019-02-27T01:00:48.901Z,50.63
2019-02-27T01:03:17.125Z,50.37
2019-02-27T01:05:45.373Z,53.77
2019-02-27T01:08:13.564Z,51.00
2019-02-27T01:10:42.852Z,51.53
2019-02-27T01:13:11.685Z,49.90
2019-02-27T01:15:41.771Z,48.60
2019-02-27T01:18:09.803Z,49.57
2019-02-27T01:20:38.020Z,47.40
2019-02-27T01:28:01.640Z,49.10
2019-02-27T01:30:29.932Z,48.53
2019-02-27T01:32:58.216Z,50.30
2019-02-27T01:35:26.431Z,48.20
2019-02-27T01:37:54.631Z,49.67
2019-02-27T01:40:22.857Z,49.27
2019-02-27T01:42:52.357Z,49.90
2019-02-27T01:45:21.729Z,50.63
2019-02-27T01:47:50.053Z,49.65
2019-02-27T01:50:28.314Z,48.20
2019-02-27T01:52:56.559Z,51.20
2019-02-27T01:55:24.857Z,47.70
2019-02-27T01:57:53.048Z,50.60
2019-02-27T02:00:23.296Z,51.35
2019-02-27T02:02:51.216Z,52.83
2019-02-27T02:05:19.625Z,50.50
2019-02-27T02:07:47.990Z,51.43
2019-02-27T02:10:16.424Z,51.17
2019-02-27T02:12:45.813Z,50.20
2019-02-27T02:15:18.545Z,48.10
2019-02-27T02:17:50.928Z,48.60
2019-02-27T02:20:27.073Z,45.73
2019-02-27T02:22:54.801Z,48.10
2019-02-27T02:25:30.429Z,47.00
2019-02-27T02:28:00.185Z,48.50
2019-02-27T02:30:48.426Z,47.23
2019-02-27T02:33:29.032Z,43.37
2019-02-27T02:35:55.431Z,45.53
2019-02-27T02:38:31.220Z,44.87
2019-02-27T02:41:10.222Z,44.40
2019-02-27T02:43:41.543Z,44.03
2019-02-27T02:46:11.473Z,43.60
2019-02-27T02:48:41.235Z,45.83
2019-02-27T02:51:29.082Z,44.83
2019-02-27T02:54:17.505Z,44.57
2019-02-27T02:56:47.310Z,44.07
2019-02-27T02:59:33.834Z,44.23
2019-02-27T03:02:03.647Z,41.87
2019-02-27T03:04:48.357Z,42.13
2019-02-27T03:07:19.814Z,41.23
2019-02-27T03:09:49.672Z,41.80
2019-02-27T03:12:37.627Z,41.90
2019-02-27T03:15:19.578Z,44.03
2019-02-27T03:18:05.813Z,44.17
2019-02-27T03:20:44.679Z,41.17
2019-02-27T03:23:15.585Z,42.10
2019-02-27T03:25:48.873Z,41.80
2019-02-27T03:28:21.314Z,41.03
2019-02-27T03:30:51.048Z,43.00
2019-02-27T03:33:37.578Z,41.00
2019-02-27T03:36:07.311Z,39.70
2019-02-27T03:38:49.127Z,41.43
2019-02-27T03:41:24.525Z,39.17
2019-02-27T03:44:03.421Z,45.80
2019-02-27T03:46:42.414Z,38.10
2019-02-27T03:49:15.807Z,38.80
2019-02-27T03:52:02.049Z,39.73
2019-02-27T03:54:31.816Z,37.50
2019-02-27T03:57:01.681Z,38.27
2019-02-27T03:59:31.485Z,40.93
2019-02-27T04:02:07.284Z,40.57
2019-02-27T04:04:37.023Z,40.23
2019-02-27T04:07:06.756Z,40.07
2019-02-27T04:09:34.987Z,41.03
2019-02-27T04:12:03.390Z,38.33
2019-02-27T04:14:32.507Z,39.77
2019-02-27T04:17:05.389Z,39.93
2019-02-27T04:19:31.026Z,38.77
2019-02-27T04:22:01.052Z,38.80
2019-02-27T04:24:29.192Z,38.80
2019-02-27T04:26:57.429Z,37.57
2019-02-27T04:29:25.654Z,39.00
2019-02-27T04:31:53.868Z,38.03
2019-02-27T04:34:22.094Z,35.90
2019-02-27T04:36:50.332Z,38.63
2019-02-27T04:39:18.533Z,37.90
2019-02-27T04:41:46.756Z,35.70
2019-02-27T04:44:15.013Z,35.20
2019-02-27T04:46:43.273Z,32.73
2019-02-27T04:49:11.463Z,37.00
2019-02-27T04:51:39.764Z,33.83
2019-02-27T04:54:07.957Z,36.00
2019-02-27T04:56:36.142Z,34.13
2019-02-27T04:59:04.379Z,32.77
2019-02-27T05:01:36.341Z,35.37
2019-02-27T05:04:02.517Z,35.87
2019-02-27T05:06:30.714Z,34.93
2019-02-27T05:09:00.259Z,32.80
2019-02-27T05:11:29.042Z,34.27
2019-02-27T05:13:57.224Z,34.20
2019-02-27T05:16:25.502Z,34.63
2019-02-27T05:18:53.735Z,34.60
2019-02-27T05:21:21.923Z,35.40
2019-02-27T05:23:50.189Z,32.50
2019-02-27T05:26:18.402Z,31.20
2019-02-27T05:28:46.613Z,31.97
2019-02-27T05:31:18.279Z,30.97
2019-02-27T05:33:44.809Z,30.60
2019-02-27T05:36:12.987Z,29.93
2019-02-27T05:38:43.674Z,33.50
2019-02-27T05:41:11.147Z,31.60
2019-02-27T05:43:39.360Z,31.57
2019-02-27T05:46:07.581Z,31.13
2019-02-27T05:48:35.781Z,31.57
2019-02-27T05:51:04.906Z,31.27
2019-02-27T05:53:33.925Z,33.53
2019-02-27T05:56:02.137Z,32.80
2019-02-27T05:58:30.382Z,31.90
2019-02-27T06:00:58.570Z,35.27
2019-02-27T06:03:26.791Z,34.30
2019-02-27T06:05:54.976Z,35.00
2019-02-27T06:08:23.193Z,35.70
2019-02-27T06:10:55.002Z,35.77
2019-02-27T06:13:21.342Z,34.93
2019-02-27T06:15:49.609Z,36.13
2019-02-27T06:18:22.504Z,35.03
2019-02-27T06:20:47.737Z,34.50
2019-02-27T06:23:16.013Z,35.97
2019-02-27T06:25:44.192Z,34.47
2019-02-27T06:28:12.420Z,34.63
2019-02-27T06:30:40.667Z,37.50
2019-02-27T06:33:11.627Z,37.53
2019-02-27T06:35:38.773Z,36.50
2019-02-27T06:38:07.205Z,35.40
2019-02-27T06:40:35.418Z,36.10
2019-02-27T06:43:03.628Z,38.47
2019-02-27T06:45:31.869Z,37.43
2019-02-27T06:48:00.054Z,38.10
2019-02-27T06:50:28.268Z,37.67
2019-02-27T06:52:56.489Z,37.53
2019-02-27T06:55:25.439Z,35.87
2019-02-27T06:57:54.637Z,36.33
2019-02-27T07:00:23.423Z,38.20
2019-02-27T07:02:55.160Z,36.70
2019-02-27T07:05:21.566Z,36.60
2019-02-27T07:07:49.778Z,36.50
2019-02-27T07:10:20.026Z,37.53
2019-02-27T07:12:48.267Z,38.30
2019-02-27T07:15:17.358Z,36.40
2019-02-27T07:17:45.610Z,36.10
2019-02-27T07:20:14.784Z,35.33
2019-02-27T07:22:45.647Z,37.53
2019-02-27T07:25:14.453Z,36.20
2019-02-27T07:27:42.647Z,36.60
2019-02-27T07:30:12.242Z,35.97
2019-02-27T07:32:40.538Z,34.27
2019-02-27T07:35:09.520Z,35.47
2019-02-27T07:37:37.772Z,34.43
2019-02-27T07:40:16.654Z,36.90
2019-02-27T07:42:44.874Z,36.67
2019-02-27T07:45:14.273Z,34.50
2019-02-27T07:47:42.501Z,35.67
2019-02-27T07:50:12.276Z,33.70
2019-02-27T07:52:40.525Z,33.53
2019-02-27T07:55:21.173Z,34.63
2019-02-27T07:57:40.078Z,33.90
2019-02-27T08:00:09.849Z,31.77
2019-02-27T08:02:38.105Z,34.33
2019-02-27T08:05:07.832Z,34.40
2019-02-27T08:10:04.802Z,33.10
2019-02-27T08:12:33.157Z,36.90
2019-02-27T08:34:41.803Z,30.70
2019-02-27T08:37:10.027Z,28.80
2019-02-27T08:39:38.220Z,29.15
2019-02-27T08:42:06.448Z,28.50
2019-02-27T08:44:34.705Z,28.90
2019-02-27T08:49:32.001Z,27.85
2019-02-27T08:52:00.255Z,29.50
2019-02-27T08:54:32.279Z,31.30
2019-02-27T08:56:58.360Z,28.43
2019-02-27T08:59:26.571Z,28.20
2019-02-27T09:01:56.364Z,29.00
2019-02-27T09:04:24.659Z,28.80
2019-02-27T09:07:02.139Z,27.30
2019-02-27T09:09:28.619Z,26.67
2019-02-27T09:11:56.849Z,26.17
2019-02-27T09:14:25.101Z,27.47
2019-02-27T09:16:53.288Z,28.37
2019-02-27T09:19:21.529Z,27.50
2019-02-27T09:24:17.089Z,28.00
2019-02-27T09:26:45.311Z,27.10
2019-02-27T09:29:18.446Z,27.70
2019-02-27T09:31:50.697Z,26.40
2019-02-27T09:34:13.327Z,26.10
2019-02-27T09:36:43.192Z,25.27
2019-02-27T09:39:11.564Z,26.50
2019-02-27T09:41:39.914Z,26.47
2019-02-27T09:44:08.141Z,25.17
2019-02-27T09:46:36.327Z,27.20
2019-02-27T09:49:06.789Z,26.40
2019-02-27T09:51:34.593Z,26.30
2019-02-27T09:54:02.829Z,24.73
2019-02-27T09:56:32.750Z,24.30
2019-02-27T09:59:01.326Z,23.30
2019-02-27T10:01:34.406Z,24.40
2019-02-27T10:03:59.453Z,25.50
2019-02-27T10:06:27.700Z,23.47
2019-02-27T10:08:56.458Z,22.10
2019-02-27T10:11:25.845Z,23.57
2019-02-27T10:13:54.057Z,22.40
2019-02-27T10:16:22.259Z,24.17
2019-02-27T10:18:54.836Z,24.80
2019-02-27T10:21:20.398Z,24.27
2019-02-27T10:23:48.632Z,22.83
2019-02-27T10:26:19.367Z,24.65
2019-02-27T10:28:46.817Z,23.07
2019-02-27T10:31:15.000Z,23.87
2019-02-27T10:33:43.650Z,24.05
2019-02-27T10:38:40.438Z,22.00
2019-02-27T10:41:08.880Z,21.95
2019-02-27T10:43:37.142Z,23.00
2019-02-27T10:46:05.351Z,23.30
2019-02-27T10:48:33.589Z,22.60
2019-02-27T10:51:01.768Z,22.93
2019-02-27T10:53:29.987Z,22.33
2019-02-27T10:55:58.205Z,19.13
2019-02-27T10:58:26.428Z,17.50
2019-02-27T11:00:54.654Z,16.20
2019-02-27T11:03:23.666Z,18.00
2019-02-27T11:05:55.472Z,15.70
2019-02-27T11:08:22.741Z,16.60
2019-02-27T11:10:51.041Z,16.63
2019-02-27T11:13:19.393Z,15.30
2019-02-27T11:15:47.597Z,14.70
2019-02-27T11:18:15.839Z,15.07
2019-02-27T11:20:44.060Z,14.97
2019-02-27T11:23:12.293Z,14.50
2019-02-27T11:25:40.475Z,15.00
2019-02-27T11:28:08.709Z,15.40
2019-02-27T11:30:37.789Z,15.60
2019-02-27T11:33:06.126Z,15.90
2019-02-27T11:35:34.347Z,15.00
2019-02-27T11:38:02.560Z,14.27
2019-02-27T11:40:30.760Z,14.73
2019-02-27T11:43:00.950Z,14.13
2019-02-27T11:45:29.081Z,14.10
2019-02-27T11:47:57.301Z,12.57
2019-02-27T11:50:25.559Z,13.77
2019-02-27T12:00:13.648Z,12.60
2019-02-27T12:02:41.991Z,13.70
2019-02-27T12:05:11.633Z,13.43
2019-02-27T12:07:39.812Z,12.87
2019-02-27T12:10:09.627Z,12.57
2019-02-27T12:12:37.945Z,12.00
2019-02-27T12:15:09.101Z,12.23
2019-02-27T12:17:37.629Z,13.33
2019-02-27T12:20:06.987Z,13.27
2019-02-27T12:22:35.946Z,12.13
2019-02-27T12:25:05.772Z,11.33
2019-02-27T12:27:48.669Z,11.03
2019-02-27T12:30:05.471Z,12.10
2019-02-27T12:32:33.685Z,12.87
2019-02-27T12:35:03.158Z,13.20
2019-02-27T12:37:34.136Z,12.90
2019-02-27T12:40:01.424Z,13.60
2019-02-27T12:42:37.112Z,14.30
2019-02-27T12:44:59.536Z,12.53
2019-02-27T12:47:27.753Z,13.90
2019-02-27T12:49:56.002Z,14.30
2019-02-27T12:52:24.183Z,13.63
2019-02-27T12:54:52.416Z,12.73
2019-02-27T12:57:20.645Z,12.83
2019-02-27T12:59:48.860Z,13.20
2019-02-27T13:02:17.092Z,13.10
2019-02-27T13:04:45.314Z,12.87
2019-02-27T13:07:13.498Z,15.40
2019-02-27T13:09:41.721Z,14.70
2019-02-27T13:12:09.957Z,14.17
2019-02-27T13:14:38.178Z,14.83
2019-02-27T13:17:06.389Z,13.70
2019-02-27T13:19:34.614Z,13.90
2019-02-27T13:22:02.800Z,14.07
2019-02-27T13:24:31.073Z,12.30
2019-02-27T13:26:59.325Z,13.33
2019-02-27T13:29:27.536Z,13.77
2019-02-27T13:31:56.623Z,13.50
2019-02-27T13:34:25.084Z,14.03
2019-02-27T13:36:53.286Z,13.77
2019-02-27T13:39:25.429Z,12.97
2019-02-27T13:41:51.393Z,14.00
2019-02-27T13:44:19.657Z,15.30
2019-02-27T13:46:47.838Z,13.27
2019-02-27T14:11:24.956Z,14.53
2019-02-27T14:13:54.049Z,13.83
2019-02-27T14:16:22.319Z,13.30
2019-02-27T14:18:50.668Z,14.43
2019-02-27T14:21:18.994Z,14.33
2019-02-27T14:23:48.023Z,13.60
2019-02-27T14:26:16.312Z,14.10
2019-02-27T14:28:44.496Z,15.30
2019-02-27T14:31:13.264Z,15.30
2019-02-27T14:33:41.517Z,15.17
2019-02-27T14:36:09.704Z,14.40
2019-02-27T14:38:37.924Z,15.03
2019-02-27T14:41:06.143Z,14.50
2019-02-27T14:43:34.353Z,14.90
2019-02-27T14:46:02.610Z,14.73
2019-02-27T14:48:30.796Z,14.80
2019-02-27T14:50:59.203Z,14.90
2019-02-27T14:53:27.587Z,15.17
2019-02-27T14:55:55.804Z,14.13
2019-02-27T14:58:24.979Z,13.70
2019-02-27T15:00:53.438Z,14.93
2019-02-27T15:03:21.672Z,14.60
2019-02-27T15:05:49.860Z,15.27
2019-02-27T15:08:18.090Z,14.33
2019-02-27T15:10:46.313Z,14.63
2019-02-27T15:13:14.534Z,13.70
2019-02-27T15:15:43.728Z,13.57
2019-02-27T15:18:14.049Z,13.90
2019-02-27T15:20:42.563Z,14.40
2019-02-27T15:23:10.804Z,14.80
2019-02-27T15:25:42.238Z,13.60
2019-02-27T15:28:08.918Z,13.00
2019-02-27T15:30:37.100Z,13.90
2019-02-27T15:33:05.515Z,13.50
2019-02-27T15:35:33.885Z,13.73
2019-02-27T15:40:30.301Z,14.00
2019-02-27T15:42:58.619Z,13.47
2019-02-27T15:45:27.709Z,13.17
2019-02-27T15:47:56.009Z,12.63
2019-02-27T15:50:25.185Z,13.73
2019-02-27T15:52:53.439Z,12.27
2019-02-27T15:55:21.627Z,12.07
2019-02-27T16:00:19.921Z,11.40
2019-02-27T16:02:48.171Z,11.13
2019-02-27T16:05:16.425Z,11.03
2019-02-27T16:07:48.329Z,12.00
2019-02-27T16:10:16.035Z,14.17
2019-02-27T16:12:44.260Z,12.13
2019-02-27T16:15:16.953Z,10.20
2019-02-27T16:17:46.221Z,11.30
2019-02-27T16:20:16.741Z,11.27
2019-02-27T16:22:45.157Z,9.67
2019-02-27T16:25:18.266Z,9.80
2019-02-27T16:27:44.845Z,10.27
2019-02-27T16:30:15.279Z,9.37
2019-02-27T16:32:47.999Z,9.33
2019-02-27T16:35:13.524Z,8.70
2019-02-27T16:37:41.765Z,9.30
2019-02-27T16:40:11.526Z,9.73
2019-02-27T16:42:39.807Z,10.03
2019-02-27T16:45:09.549Z,9.53
2019-02-27T16:47:37.741Z,9.70
2019-02-27T16:50:10.170Z,11.20
2019-02-27T16:52:39.178Z,10.60
2019-02-27T16:55:09.823Z,9.50
2019-02-27T16:57:38.018Z,10.90
2019-02-27T17:00:08.015Z,10.77
2019-02-27T17:02:38.354Z,9.90
2019-02-27T17:05:08.848Z,11.17
2019-02-27T17:22:22.580Z,11.40
2019-02-27T17:39:36.784Z,13.60
2019-02-27T17:42:04.964Z,13.00
2019-02-27T17:44:35.293Z,12.90
2019-02-27T17:47:03.085Z,13.37
2019-02-27T17:49:31.301Z,14.37
2019-02-27T17:51:59.622Z,14.10
2019-02-27T17:54:31.310Z,14.67
2019-02-27T17:56:57.794Z,14.23
2019-02-27T17:59:26.010Z,13.20
2019-02-27T18:01:58.514Z,13.10
2019-02-27T18:04:33.049Z,13.10
2019-02-27T18:07:01.269Z,13.77
2019-02-27T18:09:31.380Z,13.60
2019-02-27T18:11:59.618Z,12.63
2019-02-27T18:14:28.718Z,13.70
2019-02-27T18:16:59.299Z,13.40
2019-02-27T18:19:26.872Z,13.30
2019-02-27T18:21:55.089Z,12.50
2019-02-27T18:24:24.272Z,13.40
2019-02-27T18:26:53.718Z,12.90
2019-02-27T18:29:21.970Z,13.50
2019-02-27T18:31:51.124Z,13.20
2019-02-27T18:34:21.639Z,13.40
2019-02-27T18:39:16.584Z,14.00
2019-02-27T18:49:09.597Z,13.07
2019-02-27T18:54:06.022Z,15.10
2019-02-27T18:56:36.921Z,15.35
2019-02-27T18:59:05.100Z,15.00
2019-02-27T19:01:34.249Z,15.10
2019-02-27T19:04:02.464Z,13.70
2019-02-27T19:06:31.685Z,13.30
2019-02-27T19:09:00.807Z,13.43
2019-02-27T19:11:29.941Z,13.40
2019-02-27T19:13:58.189Z,13.90
2019-02-27T19:16:26.440Z,13.67
2019-02-27T19:18:55.572Z,13.40
2019-02-27T19:21:23.789Z,13.80
2019-02-27T19:23:53.334Z,13.33
2019-02-27T19:26:21.739Z,12.83
2019-02-27T19:28:49.979Z,13.60
2019-02-27T19:31:18.165Z,13.77
2019-02-27T19:33:46.357Z,14.47
2019-02-27T19:36:19.210Z,15.07
2019-02-27T19:38:47.704Z,13.97
2019-02-27T19:41:16.409Z,14.40
2019-02-27T19:43:45.613Z,13.23
2019-02-27T19:46:13.849Z,13.17
2019-02-27T19:48:42.952Z,18.47
2019-02-27T19:51:11.332Z,15.67
2019-02-27T19:53:40.166Z,15.60
2019-02-27T19:56:08.936Z,14.60
2019-02-27T19:58:38.107Z,15.70
2019-02-27T20:01:09.102Z,13.80
2019-02-27T20:03:37.134Z,12.83
2019-02-27T20:06:05.428Z,12.90
2019-02-27T20:08:33.673Z,15.23
2019-02-27T20:11:05.544Z,11.77
2019-02-27T20:13:31.841Z,12.43
2019-02-27T20:16:01.014Z,13.10
2019-02-27T20:18:29.193Z,13.53
2019-02-27T20:20:58.589Z,11.60
2019-02-27T20:23:26.805Z,13.07
2019-02-27T20:25:56.147Z,12.57
2019-02-27T20:28:24.537Z,14.87
2019-02-27T20:30:52.745Z,11.70
2019-02-27T20:33:22.425Z,12.97
2019-02-27T20:35:52.281Z,12.13
2019-02-27T20:38:20.921Z,11.80
2019-02-27T20:40:49.157Z,10.80
2019-02-27T20:43:17.343Z,11.67
2019-02-27T20:45:45.662Z,10.73
2019-02-27T20:48:13.876Z,11.33
2019-02-27T20:50:46.762Z,10.87
2019-02-27T20:53:14.956Z,10.60
2019-02-27T20:55:43.160Z,11.37
2019-02-27T20:58:16.353Z,10.17
2019-02-27T21:00:41.362Z,11.13
2019-02-27T21:03:09.610Z,10.10
2019-02-27T21:05:40.845Z,10.23
2019-02-27T21:08:08.076Z,10.27
2019-02-27T21:10:36.280Z,9.67
2019-02-27T21:13:04.593Z,10.20
2019-02-27T21:15:33.461Z,9.80
2019-02-27T21:18:02.104Z,9.87
2019-02-27T21:20:30.292Z,10.03
2019-02-27T21:22:59.864Z,9.83
2019-02-27T21:25:30.091Z,9.87
2019-02-27T21:27:58.276Z,10.50
2019-02-27T21:30:26.517Z,8.60
2019-02-27T21:32:54.737Z,9.53
2019-02-27T21:35:22.972Z,11.00
2019-02-27T21:37:51.178Z,10.00
2019-02-27T21:40:19.666Z,9.43
2019-02-27T21:42:50.775Z,9.87
2019-02-27T21:45:19.501Z,10.20
2019-02-27T21:47:51.391Z,9.60
2019-02-27T21:50:18.239Z,9.23
2019-02-27T21:52:46.453Z,8.80
2019-02-27T21:55:14.635Z,10.83
2019-02-27T21:57:42.861Z,8.90
2019-02-27T22:00:13.968Z,8.93
2019-02-27T22:02:42.686Z,8.73
2019-02-27T22:05:11.472Z,8.90
2019-02-27T22:07:39.679Z,7.80
2019-02-27T22:10:11.833Z,9.73
2019-02-27T22:12:40.062Z,9.37
2019-02-27T22:15:15.408Z,8.60
2019-02-27T22:17:43.586Z,8.30
2019-02-27T22:20:12.614Z,8.30
2019-02-27T22:22:41.493Z,8.20
2019-02-27T22:25:11.389Z,8.20
2019-02-27T22:27:39.620Z,8.07
2019-02-27T22:30:09.583Z,6.83
2019-02-27T22:32:37.764Z,7.93
2019-02-27T22:35:06.523Z,8.63
2019-02-27T22:37:34.749Z,7.93
2019-02-27T22:40:06.444Z,8.00
2019-02-27T22:42:33.357Z,8.70
2019-02-27T22:45:04.122Z,8.70
2019-02-27T22:47:31.460Z,7.77
2019-02-27T22:49:59.673Z,10.10
2019-02-27T22:52:27.892Z,10.30
2019-02-27T22:54:56.101Z,8.97
2019-02-27T22:57:24.279Z,9.90
2019-02-27T22:59:52.525Z,9.27
2019-02-27T23:02:21.620Z,10.23
2019-02-27T23:04:50.573Z,8.97
2019-02-27T23:07:21.341Z,8.93
2019-02-27T23:09:49.029Z,8.63
2019-02-27T23:12:17.229Z,9.50
2019-02-27T23:14:45.441Z,10.33
2019-02-27T23:17:13.668Z,8.70
2019-02-27T23:19:46.052Z,9.40
2019-02-27T23:22:11.747Z,9.07
2019-02-27T23:24:43.595Z,9.77
2019-02-27T23:27:09.867Z,10.20
2019-02-27T23:29:39.871Z,8.73
2019-02-27T23:32:07.987Z,9.27
2019-02-27T23:34:38.445Z,9.50
2019-02-27T23:37:07.473Z,10.10
2019-02-27T23:39:39.598Z,9.60
2019-02-27T23:42:06.435Z,10.07
2019-02-27T23:44:38.498Z,9.90
2019-02-27T23:47:04.741Z,10.30
2019-02-27T23:49:32.993Z,9.50
2019-02-27T23:52:01.229Z,9.80
2019-02-27T23:54:29.437Z,9.73
2019-02-27T23:56:57.657Z,9.70
2019-02-27T23:59:25.870Z,9.93
